createdAt,value
2022-11-07T00:00:05.105Z,8.40
2022-11-07T00:02:37.959Z,10.00
2022-11-07T00:05:09.164Z,10.40
2022-11-07T00:07:38.985Z,11.40
2022-11-07T00:10:09.871Z,12.80
2022-11-07T00:12:39.668Z,14.40
2022-11-07T00:15:10.414Z,15.40
2022-11-07T00:17:42.780Z,15.70
2022-11-07T00:20:13.775Z,17.20
2022-11-07T00:22:43.567Z,17.50
2022-11-07T00:25:13.448Z,17.80
2022-11-07T00:27:43.344Z,18.20
2022-11-07T00:30:14.441Z,18.30
2022-11-07T00:32:46.842Z,18.00
2022-11-07T00:35:16.738Z,18.00
2022-11-07T00:37:46.506Z,18.70
2022-11-07T00:40:16.608Z,18.70
2022-11-07T00:42:46.374Z,17.80
2022-11-07T00:45:16.156Z,17.00
2022-11-07T00:47:48.511Z,16.90
2022-11-07T00:50:18.266Z,17.40
2022-11-07T00:52:48.568Z,17.50
2022-11-07T00:55:18.537Z,17.40
2022-11-07T00:57:48.330Z,17.30
2022-11-07T01:00:18.578Z,17.20
2022-11-07T01:03:10.967Z,17.00
2022-11-07T01:05:38.366Z,17.00
2022-11-07T01:08:08.837Z,15.70
2022-11-07T01:10:43.912Z,15.40
2022-11-07T01:13:13.895Z,15.40
2022-11-07T01:15:44.239Z,15.40
2022-11-07T01:18:17.350Z,16.30
2022-11-07T01:20:47.135Z,16.60
2022-11-07T01:23:17.576Z,16.80
2022-11-07T01:25:48.363Z,15.70
2022-11-07T01:28:18.208Z,16.50
2022-11-07T01:30:48.328Z,17.50
2022-11-07T01:33:20.684Z,18.70
2022-11-07T01:35:50.462Z,18.20
2022-11-07T01:38:20.209Z,19.00
2022-11-07T01:41:02.485Z,20.10
2022-11-07T01:43:45.378Z,20.80
2022-11-07T01:46:15.444Z,21.80
2022-11-07T01:48:52.118Z,22.00
2022-11-07T01:51:23.332Z,21.50
2022-11-07T01:53:54.004Z,22.10
2022-11-07T01:56:27.627Z,21.30
2022-11-07T01:58:58.772Z,21.80
2022-11-07T02:01:28.768Z,22.10
2022-11-07T02:04:02.801Z,21.30
2022-11-07T02:06:38.996Z,21.20
2022-11-07T02:09:08.812Z,20.50
2022-11-07T02:11:38.849Z,20.40
2022-11-07T02:14:08.810Z,20.90
2022-11-07T02:16:45.553Z,20.60
2022-11-07T02:19:25.623Z,21.10
2022-11-07T02:22:01.846Z,21.20
2022-11-07T02:24:37.622Z,21.40
2022-11-07T02:27:12.637Z,22.10
2022-11-07T02:29:46.129Z,21.80
2022-11-07T02:32:16.430Z,21.70
2022-11-07T02:34:46.484Z,21.00
2022-11-07T02:37:26.560Z,21.20
2022-11-07T02:39:59.117Z,21.80
2022-11-07T02:42:43.544Z,22.20
2022-11-07T02:45:16.601Z,22.20
2022-11-07T02:47:46.482Z,21.50
2022-11-07T02:50:18.224Z,20.40
2022-11-07T02:52:48.099Z,19.80
2022-11-07T02:55:20.747Z,19.30
2022-11-07T02:57:50.525Z,18.30
2022-11-07T03:00:20.857Z,17.20
2022-11-07T03:02:50.878Z,17.10
2022-11-07T03:05:22.488Z,17.70
2022-11-07T03:07:52.717Z,18.20
2022-11-07T03:10:25.058Z,18.00
2022-11-07T03:12:54.815Z,17.80
2022-11-07T03:15:24.600Z,17.00
2022-11-07T03:17:54.488Z,16.70
2022-11-07T03:20:24.275Z,15.50
2022-11-07T03:22:54.019Z,15.50
2022-11-07T03:25:26.396Z,14.60
2022-11-07T03:27:56.309Z,14.60
2022-11-07T03:30:26.106Z,15.00
2022-11-07T03:32:56.220Z,14.40
2022-11-07T03:35:27.863Z,14.30
2022-11-07T03:37:57.714Z,14.00
2022-11-07T03:40:30.216Z,13.90
2022-11-07T03:42:59.985Z,13.10
2022-11-07T03:45:29.794Z,13.10
2022-11-07T03:47:59.653Z,12.10
2022-11-07T03:50:29.411Z,12.10
2022-11-07T03:52:59.225Z,11.70
2022-11-07T03:55:31.588Z,11.70
2022-11-07T03:58:01.369Z,11.20
2022-11-07T04:00:31.207Z,11.00
2022-11-07T04:03:01.163Z,11.10
2022-11-07T04:05:31.024Z,11.90
2022-11-07T04:08:00.884Z,12.20
2022-11-07T04:10:33.341Z,12.10
2022-11-07T04:13:16.043Z,12.00
2022-11-07T04:16:00.351Z,12.20
2022-11-07T04:18:30.210Z,12.30
2022-11-07T04:20:59.940Z,12.20
2022-11-07T04:23:29.871Z,11.40
2022-11-07T04:26:14.747Z,11.60
2022-11-07T04:28:44.585Z,12.50
2022-11-07T04:31:14.385Z,12.60
2022-11-07T04:33:44.197Z,12.10
2022-11-07T04:36:13.972Z,12.00
2022-11-07T04:38:43.729Z,12.60
2022-11-07T04:41:24.862Z,13.00
2022-11-07T04:43:54.679Z,13.10
2022-11-07T04:46:24.452Z,12.60
2022-11-07T04:48:54.208Z,12.50
2022-11-07T04:51:25.221Z,13.00
2022-11-07T04:53:54.998Z,13.70
2022-11-07T04:56:30.516Z,13.50
2022-11-07T04:59:03.993Z,13.20
2022-11-07T05:01:33.925Z,12.70
2022-11-07T05:04:03.911Z,13.40
2022-11-07T05:06:38.619Z,13.70
2022-11-07T05:09:09.825Z,13.90
2022-11-07T05:11:42.201Z,15.10
2022-11-07T05:14:12.260Z,15.00
2022-11-07T05:16:43.043Z,15.60
2022-11-07T05:19:18.245Z,15.50
2022-11-07T05:22:08.703Z,15.50
2022-11-07T05:24:35.883Z,15.40
2022-11-07T05:27:08.485Z,16.30
2022-11-07T05:29:40.159Z,17.20
2022-11-07T05:32:09.946Z,16.70
2022-11-07T05:34:39.734Z,17.20
2022-11-07T05:37:10.736Z,17.20
2022-11-07T05:39:41.078Z,17.20
2022-11-07T05:42:13.403Z,17.10
2022-11-07T05:44:43.198Z,17.70
2022-11-07T05:47:12.963Z,18.00
2022-11-07T05:49:42.742Z,17.20
2022-11-07T05:52:12.494Z,17.30
2022-11-07T05:54:42.283Z,17.50
2022-11-07T05:57:14.651Z,17.10
2022-11-07T05:59:44.418Z,18.20
2022-11-07T06:02:15.263Z,19.00
2022-11-07T06:04:45.234Z,20.10
2022-11-07T06:07:14.991Z,20.40
2022-11-07T06:09:44.779Z,19.90
2022-11-07T06:12:17.125Z,20.40
2022-11-07T06:14:46.887Z,20.70
2022-11-07T06:17:16.651Z,20.50
2022-11-07T06:19:46.402Z,20.70
2022-11-07T06:22:16.318Z,20.30
2022-11-07T06:24:46.280Z,20.40
2022-11-07T06:27:18.604Z,20.60
2022-11-07T06:29:48.406Z,20.90
2022-11-07T06:32:18.203Z,21.00
2022-11-07T06:34:47.997Z,20.90
2022-11-07T06:37:17.834Z,20.40
2022-11-07T06:39:47.636Z,19.90
2022-11-07T06:42:19.984Z,19.90
2022-11-07T06:44:49.722Z,19.70
2022-11-07T06:47:19.474Z,19.90
2022-11-07T06:49:49.285Z,20.20
2022-11-07T06:52:19.432Z,20.70
2022-11-07T06:54:49.228Z,20.30
2022-11-07T06:57:21.598Z,20.20
2022-11-07T06:59:52.073Z,19.50
2022-11-07T07:02:44.309Z,19.30
2022-11-07T07:05:14.990Z,19.10
2022-11-07T07:07:48.276Z,18.40
2022-11-07T07:10:18.464Z,18.10
2022-11-07T07:12:50.853Z,17.40
2022-11-07T07:15:20.772Z,16.60
2022-11-07T07:17:50.746Z,16.30
2022-11-07T07:20:20.869Z,15.90
2022-11-07T07:22:57.804Z,15.10
2022-11-07T07:25:29.300Z,14.50
2022-11-07T07:28:04.408Z,14.10
2022-11-07T07:30:35.170Z,13.70
2022-11-07T07:33:04.936Z,13.90
2022-11-07T07:35:34.711Z,13.90
2022-11-07T07:38:04.451Z,14.20
2022-11-07T07:40:34.208Z,14.10
2022-11-07T07:43:06.622Z,14.10
2022-11-07T07:45:36.394Z,13.50
2022-11-07T07:48:06.623Z,13.30
2022-11-07T07:50:36.430Z,12.60
2022-11-07T07:53:13.833Z,12.20
2022-11-07T07:55:43.751Z,11.70
2022-11-07T07:58:16.489Z,11.20
2022-11-07T08:00:46.250Z,10.00
2022-11-07T08:03:16.281Z,9.30
2022-11-07T08:05:46.474Z,8.50
2022-11-07T08:08:16.783Z,7.10
2022-11-07T08:10:46.610Z,6.40
2022-11-07T08:13:19.205Z,5.60
2022-11-07T08:15:49.443Z,5.40
2022-11-07T08:18:19.833Z,3.80
2022-11-07T08:20:49.904Z,4.20
2022-11-07T08:23:20.324Z,4.60
2022-11-07T08:25:54.632Z,4.40
2022-11-07T08:28:30.995Z,4.20
2022-11-07T08:31:03.040Z,4.30
2022-11-07T08:33:33.446Z,4.10
2022-11-07T08:36:04.806Z,4.50
2022-11-07T08:38:36.785Z,4.40
2022-11-07T08:41:07.560Z,4.60
2022-11-07T08:43:39.918Z,4.70
2022-11-07T08:46:09.766Z,3.80
2022-11-07T08:48:39.577Z,4.30
2022-11-07T08:51:10.059Z,2.90
2022-11-07T08:53:39.921Z,2.30
2022-11-07T08:56:11.909Z,2.70
2022-11-07T08:58:44.667Z,2.30
2022-11-07T09:01:14.509Z,2.40
2022-11-07T09:03:50.280Z,1.90
2022-11-07T09:06:24.831Z,1.20
2022-11-07T09:08:54.656Z,1.00
2022-11-07T09:11:24.776Z,1.00
2022-11-07T09:13:58.115Z,1.00
2022-11-07T09:16:27.916Z,1.00
2022-11-07T09:18:57.771Z,1.00
2022-11-07T09:21:27.513Z,1.00
2022-11-07T09:23:57.286Z,1.00
2022-11-07T09:26:27.047Z,1.00
2022-11-07T09:29:01.265Z,1.00
2022-11-07T09:31:31.306Z,1.00
2022-11-07T09:34:01.260Z,1.00
2022-11-07T09:36:31.018Z,1.00
2022-11-07T09:39:01.435Z,1.00
2022-11-07T09:41:46.570Z,1.00
2022-11-07T09:44:42.913Z,1.00
2022-11-07T09:47:24.434Z,1.00
2022-11-07T09:49:56.626Z,1.00
2022-11-07T09:52:31.870Z,1.00
2022-11-07T09:55:07.237Z,1.00
2022-11-07T09:57:38.741Z,1.00
2022-11-07T10:00:17.432Z,1.00
2022-11-07T10:02:49.250Z,1.00
2022-11-07T10:05:24.055Z,1.00
2022-11-07T10:08:05.409Z,1.00
2022-11-07T10:10:45.459Z,1.00
2022-11-07T10:13:44.027Z,1.00
2022-11-07T10:16:23.612Z,1.00
2022-11-07T10:19:06.732Z,1.00
2022-11-07T10:21:46.457Z,1.00
2022-11-07T10:24:34.295Z,1.00
2022-11-07T10:27:04.639Z,1.00
2022-11-07T10:29:44.794Z,1.00
2022-11-07T10:32:25.302Z,1.00
2022-11-07T10:35:20.849Z,1.00
2022-11-07T10:37:57.072Z,1.00
2022-11-07T10:40:29.010Z,1.00
2022-11-07T10:42:59.215Z,1.00
2022-11-07T10:45:31.183Z,1.00
2022-11-07T10:48:06.335Z,1.00
2022-11-07T10:50:36.093Z,1.00
2022-11-07T10:53:11.768Z,1.00
2022-11-07T10:55:47.284Z,1.00
2022-11-07T10:58:22.888Z,1.00
2022-11-07T11:01:05.048Z,1.00
2022-11-07T11:03:44.765Z,1.00
2022-11-07T11:06:25.979Z,1.00
2022-11-07T11:08:56.077Z,1.00
2022-11-07T11:11:32.794Z,1.00
2022-11-07T11:14:08.221Z,1.00
2022-11-07T11:16:40.380Z,1.00
2022-11-07T11:19:23.142Z,1.00
2022-11-07T11:21:54.734Z,1.00
2022-11-07T11:24:37.432Z,1.00
2022-11-07T11:27:14.957Z,1.00
2022-11-07T11:29:54.467Z,1.00
2022-11-07T11:32:29.497Z,1.00
2022-11-07T11:35:10.798Z,1.00
2022-11-07T11:37:45.303Z,1.00
2022-11-07T11:40:20.678Z,1.00
2022-11-07T11:42:55.285Z,1.00
2022-11-07T11:45:34.035Z,1.00
2022-11-07T11:48:12.900Z,1.00
2022-11-07T11:50:50.786Z,1.00
2022-11-07T11:53:23.522Z,1.00
2022-11-07T11:56:00.601Z,1.00
2022-11-07T11:58:45.657Z,1.00
2022-11-07T12:04:41.013Z,1.00
2022-11-07T12:07:23.492Z,1.00
2022-11-07T12:09:59.616Z,1.00
2022-11-07T12:12:33.934Z,1.00
2022-11-07T12:15:18.457Z,1.00
2022-11-07T12:17:52.793Z,1.00
2022-11-07T12:20:29.249Z,1.00
2022-11-07T12:23:18.665Z,1.00
2022-11-07T12:25:56.339Z,1.00
2022-11-07T12:28:40.956Z,1.00
2022-11-07T12:31:16.516Z,1.00
2022-11-07T12:33:51.766Z,1.00
2022-11-07T12:36:39.546Z,1.00
2022-11-07T12:39:39.101Z,1.00
2022-11-07T12:42:20.231Z,1.00
2022-11-07T12:45:00.882Z,1.00
2022-11-07T12:47:55.674Z,1.00
2022-11-07T12:50:36.390Z,1.00
2022-11-07T12:53:16.689Z,1.00
2022-11-07T12:55:50.694Z,1.00
2022-11-07T12:58:26.531Z,1.00
2022-11-07T13:00:56.525Z,1.00
2022-11-07T13:03:45.156Z,1.00
2022-11-07T13:06:22.203Z,1.00
2022-11-07T13:09:01.458Z,1.00
2022-11-07T13:11:37.232Z,1.00
2022-11-07T13:14:24.286Z,1.00
2022-11-07T13:16:56.842Z,1.00
2022-11-07T13:19:33.091Z,1.00
2022-11-07T13:22:05.444Z,1.00
2022-11-07T13:24:36.557Z,1.00
2022-11-07T13:27:18.171Z,1.00
2022-11-07T13:29:50.728Z,1.00
2022-11-07T13:32:20.869Z,1.00
2022-11-07T13:34:59.891Z,1.00
2022-11-07T13:37:32.749Z,1.00
2022-11-07T13:40:04.387Z,1.00
2022-11-07T13:42:36.250Z,1.00
2022-11-07T13:45:21.593Z,1.00
2022-11-07T13:47:51.899Z,1.00
2022-11-07T13:50:26.446Z,1.00
2022-11-07T13:53:02.628Z,1.00
2022-11-07T13:55:38.931Z,1.00
2022-11-07T13:58:13.517Z,1.00
2022-11-07T14:00:45.955Z,1.00
2022-11-07T14:03:26.903Z,1.00
2022-11-07T14:05:57.927Z,1.00
2022-11-07T14:08:35.583Z,1.00
2022-11-07T14:11:05.794Z,1.00
2022-11-07T14:13:41.480Z,1.00
2022-11-07T14:16:24.296Z,1.00
2022-11-07T14:18:59.710Z,1.00
2022-11-07T14:21:31.231Z,1.00
2022-11-07T14:24:01.600Z,1.00
2022-11-07T14:26:33.319Z,1.00
2022-11-07T14:29:03.713Z,1.00
2022-11-07T14:31:38.779Z,1.00
2022-11-07T14:34:20.831Z,1.00
2022-11-07T14:36:51.831Z,1.00
2022-11-07T14:39:24.471Z,1.00
2022-11-07T14:41:56.568Z,1.00
2022-11-07T14:44:41.958Z,1.00
2022-11-07T14:47:25.812Z,1.00
2022-11-07T14:49:57.078Z,1.00
2022-11-07T14:52:32.082Z,1.00
2022-11-07T14:55:05.937Z,1.00
2022-11-07T14:57:38.438Z,1.00
2022-11-07T15:00:09.950Z,1.00
2022-11-07T15:02:42.505Z,1.00
2022-11-07T15:05:24.458Z,1.00
2022-11-07T15:07:55.674Z,1.00
2022-11-07T15:10:33.518Z,1.00
2022-11-07T15:13:06.023Z,1.00
2022-11-07T15:15:37.090Z,1.00
2022-11-07T15:18:10.048Z,1.00
2022-11-07T15:20:41.455Z,1.00
2022-11-07T15:23:30.403Z,1.00
2022-11-07T15:26:03.023Z,1.00
2022-11-07T15:28:46.052Z,1.00
2022-11-07T15:31:22.553Z,1.00
2022-11-07T15:33:55.736Z,1.00
2022-11-07T15:36:26.286Z,1.00
2022-11-07T15:38:56.799Z,1.00
2022-11-07T15:41:26.778Z,1.00
2022-11-07T15:43:56.587Z,1.00
2022-11-07T15:46:31.250Z,1.00
2022-11-07T15:49:04.945Z,1.00
2022-11-07T15:51:35.269Z,1.00
2022-11-07T15:54:05.237Z,1.00
2022-11-07T15:56:35.822Z,1.00
2022-11-07T15:59:05.642Z,1.00
2022-11-07T16:01:35.684Z,1.00
2022-11-07T16:04:08.644Z,1.00
2022-11-07T16:06:43.458Z,1.00
2022-11-07T16:09:19.445Z,1.00
2022-11-07T16:11:49.688Z,1.00
2022-11-07T16:14:43.043Z,1.00
2022-11-07T16:17:14.977Z,1.00
2022-11-07T16:19:48.092Z,1.00
2022-11-07T16:22:18.807Z,1.00
2022-11-07T16:24:48.642Z,1.00
2022-11-07T16:27:20.446Z,1.00
2022-11-07T16:29:50.733Z,1.00
2022-11-07T16:32:20.557Z,1.00
2022-11-07T16:34:52.996Z,1.00
2022-11-07T16:37:22.756Z,1.00
2022-11-07T16:39:52.555Z,1.00
2022-11-07T16:42:22.447Z,1.00
2022-11-07T16:44:52.355Z,1.00
2022-11-07T16:47:23.909Z,1.00
2022-11-07T16:49:56.351Z,1.00
2022-11-07T16:52:28.196Z,1.00
2022-11-07T16:54:58.022Z,1.00
2022-11-07T16:57:28.896Z,1.00
2022-11-07T16:59:58.651Z,1.00
2022-11-07T17:02:29.599Z,1.00
2022-11-07T17:05:02.129Z,1.00
2022-11-07T17:07:32.150Z,1.00
2022-11-07T17:10:01.970Z,1.00
2022-11-07T17:12:31.764Z,1.00
2022-11-07T17:15:01.531Z,1.00
2022-11-07T17:17:31.500Z,1.00
2022-11-07T17:20:03.974Z,1.00
2022-11-07T17:22:33.775Z,1.00
2022-11-07T17:25:03.593Z,1.00
2022-11-07T17:27:33.359Z,1.00
2022-11-07T17:30:08.191Z,1.00
2022-11-07T17:32:38.415Z,1.00
2022-11-07T17:35:30.977Z,1.00
2022-11-07T17:38:01.420Z,1.00
2022-11-07T17:40:33.120Z,1.00
2022-11-07T17:43:03.695Z,1.00
2022-11-07T17:45:33.469Z,1.00
2022-11-07T17:48:03.234Z,1.00
2022-11-07T17:50:35.603Z,1.00
2022-11-07T17:53:05.392Z,1.00
2022-11-07T17:55:35.219Z,1.00
2022-11-07T17:58:04.958Z,1.00
2022-11-07T18:00:34.739Z,1.00
2022-11-07T18:03:04.655Z,1.00
2022-11-07T18:05:37.191Z,1.00
2022-11-07T18:08:15.409Z,1.00
2022-11-07T18:11:02.294Z,1.00
2022-11-07T18:13:32.171Z,1.00
2022-11-07T18:16:01.950Z,1.00
2022-11-07T18:18:31.850Z,1.00
2022-11-07T18:21:04.952Z,1.00
2022-11-07T18:23:34.760Z,1.00
2022-11-07T18:26:05.905Z,1.00
2022-11-07T18:28:37.638Z,1.00
2022-11-07T18:31:09.520Z,1.00
2022-11-07T18:33:39.516Z,1.00
2022-11-07T18:36:15.125Z,1.00
2022-11-07T18:38:44.933Z,1.00
2022-11-07T18:41:16.289Z,1.00
2022-11-07T18:43:46.246Z,1.00
2022-11-07T18:46:19.248Z,1.00
2022-11-07T18:48:49.728Z,1.10
2022-11-07T18:51:24.351Z,1.30
2022-11-07T18:53:55.837Z,1.50
2022-11-07T18:56:25.638Z,2.20
2022-11-07T18:58:55.472Z,2.20
2022-11-07T19:01:28.221Z,2.30
2022-11-07T19:03:59.148Z,2.20
2022-11-07T19:06:32.572Z,1.40
2022-11-07T19:09:02.416Z,1.40
2022-11-07T19:11:34.673Z,1.00
2022-11-07T19:14:05.133Z,1.30
2022-11-07T19:16:34.973Z,1.00
2022-11-07T19:19:04.838Z,1.40
2022-11-07T19:21:39.141Z,2.00
2022-11-07T19:24:12.830Z,1.40
2022-11-07T19:26:42.898Z,2.10
2022-11-07T19:29:12.782Z,2.20
2022-11-07T19:31:42.847Z,2.20
2022-11-07T19:34:12.631Z,2.50
2022-11-07T19:36:44.964Z,2.10
2022-11-07T19:39:14.796Z,2.70
2022-11-07T19:41:44.649Z,3.30
2022-11-07T19:44:14.462Z,3.10
2022-11-07T19:46:44.295Z,2.60
2022-11-07T19:49:14.105Z,2.40
2022-11-07T19:51:46.619Z,2.60
2022-11-07T19:54:16.383Z,2.20
2022-11-07T19:56:46.492Z,2.20
2022-11-07T19:59:16.279Z,2.60
2022-11-07T20:01:58.723Z,2.60
2022-11-07T20:04:35.926Z,2.30
2022-11-07T20:07:08.661Z,2.10
2022-11-07T20:09:38.527Z,2.30
2022-11-07T20:12:09.230Z,3.10
2022-11-07T20:14:40.230Z,3.80
2022-11-07T20:17:10.279Z,4.80
2022-11-07T20:19:40.287Z,5.70
2022-11-07T20:22:13.568Z,6.40
2022-11-07T20:24:43.368Z,7.10
2022-11-07T20:27:14.684Z,8.00
2022-11-07T20:29:44.534Z,7.40
2022-11-07T20:32:14.351Z,7.30
2022-11-07T20:34:44.166Z,6.50
2022-11-07T20:37:20.845Z,6.60
2022-11-07T20:39:51.685Z,6.60
2022-11-07T20:42:21.654Z,6.40
2022-11-07T20:44:52.861Z,7.00
2022-11-07T20:47:23.714Z,7.10
2022-11-07T20:49:53.657Z,7.70
2022-11-07T20:52:28.727Z,7.90
2022-11-07T20:54:58.481Z,8.10
2022-11-07T20:57:29.719Z,8.30
2022-11-07T21:00:01.145Z,8.20
2022-11-07T21:02:30.992Z,8.10
2022-11-07T21:05:17.213Z,8.70
2022-11-07T21:07:50.882Z,9.00
2022-11-07T21:10:21.275Z,9.20
2022-11-07T21:12:51.282Z,9.70
2022-11-07T21:15:21.211Z,10.80
2022-11-07T21:17:51.056Z,10.40
2022-11-07T21:20:21.160Z,11.10
2022-11-07T21:22:54.096Z,11.40
2022-11-07T21:25:23.841Z,11.10
2022-11-07T21:27:53.618Z,11.30
2022-11-07T21:30:23.434Z,11.60
2022-11-07T21:32:53.216Z,12.40
2022-11-07T21:35:23.878Z,13.00
2022-11-07T21:37:56.253Z,14.10
2022-11-07T21:40:26.027Z,15.10
2022-11-07T21:42:56.298Z,16.00
2022-11-07T21:45:26.131Z,16.00
2022-11-07T21:47:56.019Z,17.10
2022-11-07T21:53:18.693Z,18.40
2022-11-07T21:55:48.756Z,19.80
2022-11-07T21:58:19.680Z,20.60
2022-11-07T22:00:49.523Z,20.70
2022-11-07T22:03:32.049Z,22.30
2022-11-07T22:06:10.420Z,22.30
2022-11-07T22:08:42.990Z,23.10
2022-11-07T22:11:12.762Z,23.50
2022-11-07T22:13:42.762Z,23.90
2022-11-07T22:16:15.177Z,24.40
2022-11-07T22:18:45.273Z,24.90
2022-11-07T22:21:19.629Z,24.90
2022-11-07T22:23:52.118Z,23.50
2022-11-07T22:26:23.638Z,23.60
2022-11-07T22:28:54.002Z,23.40
2022-11-07T22:31:25.380Z,23.80
2022-11-07T22:33:56.786Z,23.30
2022-11-07T22:36:27.324Z,23.50
2022-11-07T22:39:00.505Z,23.20
2022-11-07T22:41:31.823Z,24.20
2022-11-07T22:44:01.651Z,24.00
2022-11-07T22:46:33.470Z,24.60
2022-11-07T22:49:03.326Z,25.00
2022-11-07T22:51:35.173Z,25.00
2022-11-07T22:54:09.927Z,24.70
2022-11-07T22:56:40.119Z,24.20
2022-11-07T22:59:10.466Z,24.60
2022-11-07T23:01:42.281Z,25.20
2022-11-07T23:04:15.913Z,25.10
2022-11-07T23:06:45.744Z,24.90
2022-11-07T23:09:19.326Z,24.50
2022-11-07T23:11:49.180Z,24.90
2022-11-07T23:14:22.535Z,24.80
2022-11-07T23:16:53.695Z,24.70
2022-11-07T23:19:25.329Z,24.60
2022-11-07T23:21:57.388Z,24.70
2022-11-07T23:24:30.269Z,24.90
2022-11-07T23:27:00.285Z,25.40
2022-11-07T23:29:30.053Z,25.30
2022-11-07T23:31:59.838Z,25.30
2022-11-07T23:34:29.594Z,25.20
2022-11-07T23:36:59.421Z,25.40
2022-11-07T23:39:32.362Z,24.10
2022-11-07T23:42:02.143Z,24.20
2022-11-07T23:44:31.893Z,24.50
2022-11-07T23:47:14.140Z,24.80
2022-11-07T23:50:11.330Z,23.80
2022-11-07T23:52:41.125Z,23.80
2022-11-07T23:55:26.165Z,24.00
2022-11-07T23:58:08.414Z,23.60
